sensor_id;sensor_type;location;lat;lon;timestamp;pressure;altitude;pressure_sealevel;temperature;humidity
17615;BME280;8926;49.720;6.576;2023-02-15T00:01:37;101149.59;;;2.97;82.21
17615;BME280;8926;49.720;6.576;2023-02-15T00:04:07;101140.13;;;2.95;82.36
17615;BME280;8926;49.720;6.576;2023-02-15T00:06:33;101142.72;;;2.96;82.51
17615;BME280;8926;49.720;6.576;2023-02-15T00:08:59;101145.31;;;2.89;82.38
17615;BME280;8926;49.720;6.576;2023-02-15T00:11:24;101145.31;;;2.89;82.42
17615;BME280;8926;49.720;6.576;2023-02-15T00:16:34;101142.78;;;2.84;82.17
17615;BME280;8926;49.720;6.576;2023-02-15T00:19:00;101147.06;;;2.84;81.74
17615;BME280;8926;49.720;6.576;2023-02-15T00:21:30;101137.63;;;2.80;81.74
17615;BME280;8926;49.720;6.576;2023-02-15T00:23:57;101130.72;;;2.82;81.98
17615;BME280;8926;49.720;6.576;2023-02-15T00:26:24;101127.28;;;2.80;81.77
17615;BME280;8926;49.720;6.576;2023-02-15T00:28:49;101138.47;;;2.82;82.18
17615;BME280;8926;49.720;6.576;2023-02-15T00:31:15;101130.75;;;2.74;81.78
17615;BME280;8926;49.720;6.576;2023-02-15T00:33:40;101128.16;;;2.72;82.28
17615;BME280;8926;49.720;6.576;2023-02-15T00:36:07;101124.72;;;2.73;82.07
17615;BME280;8926;49.720;6.576;2023-02-15T00:38:33;101128.16;;;2.72;81.93
17615;BME280;8926;49.720;6.576;2023-02-15T00:41:00;101119.56;;;2.73;81.62
17615;BME280;8926;49.720;6.576;2023-02-15T00:43:27;101119.56;;;2.67;82.24
17615;BME280;8926;49.720;6.576;2023-02-15T00:45:53;101123.03;;;2.60;82.29
17615;BME280;8926;49.720;6.576;2023-02-15T00:48:19;101129.91;;;2.61;82.32
17615;BME280;8926;49.720;6.576;2023-02-15T00:50:46;101117.84;;;2.63;82.54
17615;BME280;8926;49.720;6.576;2023-02-15T00:53:12;101129.88;;;2.67;82.22
17615;BME280;8926;49.720;6.576;2023-02-15T00:55:37;101126.47;;;2.61;82.08
17615;BME280;8926;49.720;6.576;2023-02-15T00:58:05;101123.91;;;2.53;82.42
17615;BME280;8926;49.720;6.576;2023-02-15T01:00:30;101123.91;;;2.49;82.52
17615;BME280;8926;49.720;6.576;2023-02-15T01:02:55;101126.50;;;2.44;82.56
17615;BME280;8926;49.720;6.576;2023-02-15T01:05:21;101129.94;;;2.40;83.09
17615;BME280;8926;49.720;6.576;2023-02-15T01:07:46;101117.91;;;2.39;83.25
17615;BME280;8926;49.720;6.576;2023-02-15T01:10:11;101123.91;;;2.36;82.16
17615;BME280;8926;49.720;6.576;2023-02-15T01:12:36;101127.34;;;2.34;82.17
17615;BME280;8926;49.720;6.576;2023-02-15T01:15:02;101121.38;;;2.32;82.15
17615;BME280;8926;49.720;6.576;2023-02-15T01:17:27;101114.50;;;2.28;82.30
17615;BME280;8926;49.720;6.576;2023-02-15T01:19:53;101115.34;;;2.24;82.30
17615;BME280;8926;49.720;6.576;2023-02-15T01:22:18;101117.06;;;2.23;82.43
17615;BME280;8926;49.720;6.576;2023-02-15T01:24:44;101111.91;;;2.22;81.99
17615;BME280;8926;49.720;6.576;2023-02-15T01:27:10;101123.09;;;2.21;81.73
17615;BME280;8926;49.720;6.576;2023-02-15T01:29:35;101117.06;;;2.20;82.18
17615;BME280;8926;49.720;6.576;2023-02-15T01:32:00;101114.50;;;2.22;82.64
17615;BME280;8926;49.720;6.576;2023-02-15T01:34:25;101110.19;;;2.18;82.20
17615;BME280;8926;49.720;6.576;2023-02-15T01:36:51;101107.63;;;2.15;82.20
17615;BME280;8926;49.720;6.576;2023-02-15T01:39:16;101114.50;;;2.19;82.92
17615;BME280;8926;49.720;6.576;2023-02-15T01:41:41;101115.34;;;2.18;82.69
17615;BME280;8926;49.720;6.576;2023-02-15T01:47:13;101104.19;;;2.13;82.26
17615;BME280;8926;49.720;6.576;2023-02-15T01:49:42;101102.47;;;2.12;81.94
17615;BME280;8926;49.720;6.576;2023-02-15T01:52:13;101099.88;;;2.10;81.59
17615;BME280;8926;49.720;6.576;2023-02-15T01:54:40;101099.03;;;2.10;81.68
17615;BME280;8926;49.720;6.576;2023-02-15T01:57:10;101102.47;;;2.12;81.96
17615;BME280;8926;49.720;6.576;2023-02-15T01:59:39;101097.31;;;2.09;81.48
17615;BME280;8926;49.720;6.576;2023-02-15T02:02:08;101095.63;;;2.08;81.71
17615;BME280;8926;49.720;6.576;2023-02-15T02:04:54;101088.75;;;2.03;81.22
17615;BME280;8926;49.720;6.576;2023-02-15T02:07:27;101088.72;;;1.94;81.33
17615;BME280;8926;49.720;6.576;2023-02-15T02:09:53;101076.69;;;1.87;81.85
17615;BME280;8926;49.720;6.576;2023-02-15T02:12:21;101075.00;;;1.92;81.81
17615;BME280;8926;49.720;6.576;2023-02-15T02:14:48;101077.56;;;1.92;81.77
17615;BME280;8926;49.720;6.576;2023-02-15T02:17:24;101083.59;;;1.97;82.31
17615;BME280;8926;49.720;6.576;2023-02-15T02:28:38;101078.41;;;1.91;82.69
17615;BME280;8926;49.720;6.576;2023-02-15T02:34:29;101066.41;;;1.98;82.96
17615;BME280;8926;49.720;6.576;2023-02-15T02:43:09;101057.81;;;2.03;82.69
17615;BME280;8926;49.720;6.576;2023-02-15T02:45:42;101052.66;;;2.07;83.30
17615;BME280;8926;49.720;6.576;2023-02-15T02:48:17;101049.19;;;2.11;82.44
17615;BME280;8926;49.720;6.576;2023-02-15T02:50:44;101050.94;;;2.06;83.44
17615;BME280;8926;49.720;6.576;2023-02-15T02:53:10;101050.94;;;2.06;83.36
17615;BME280;8926;49.720;6.576;2023-02-15T02:55:49;101044.06;;;2.04;83.44
17615;BME280;8926;49.720;6.576;2023-02-15T03:00:57;101038.88;;;2.14;82.69
17615;BME280;8926;49.720;6.576;2023-02-15T03:03:30;101042.31;;;2.13;81.44
17615;BME280;8926;49.720;6.576;2023-02-15T03:06:02;101032.91;;;2.04;81.45
17615;BME280;8926;49.720;6.576;2023-02-15T03:08:41;101037.19;;;2.07;81.84
17615;BME280;8926;49.720;6.576;2023-02-15T03:11:08;101032.03;;;2.03;81.38
17615;BME280;8926;49.720;6.576;2023-02-15T03:13:34;101032.03;;;2.02;82.27
17615;BME280;8926;49.720;6.576;2023-02-15T03:16:01;101028.59;;;2.01;81.42
17615;BME280;8926;49.720;6.576;2023-02-15T03:18:48;101024.31;;;2.02;82.03
17615;BME280;8926;49.720;6.576;2023-02-15T03:21:27;101025.19;;;2.02;82.48
17615;BME280;8926;49.720;6.576;2023-02-15T03:24:20;101025.19;;;2.06;81.95
17615;BME280;8926;49.720;6.576;2023-02-15T03:26:47;101027.72;;;2.09;82.62
17615;BME280;8926;49.720;6.576;2023-02-15T03:29:15;101029.44;;;2.14;81.12
17615;BME280;8926;49.720;6.576;2023-02-15T03:31:45;101024.28;;;2.14;82.24
17615;BME280;8926;49.720;6.576;2023-02-15T03:34:14;101017.41;;;2.16;82.88
17615;BME280;8926;49.720;6.576;2023-02-15T03:36:56;101022.56;;;2.18;82.42
17615;BME280;8926;49.720;6.576;2023-02-15T03:39:31;101021.69;;;2.23;82.00
17615;BME280;8926;49.720;6.576;2023-02-15T03:42:13;101026.84;;;2.25;82.06
17615;BME280;8926;49.720;6.576;2023-02-15T03:47:19;101033.72;;;2.29;82.33
17615;BME280;8926;49.720;6.576;2023-02-15T03:49:54;101032.84;;;2.30;83.35
17615;BME280;8926;49.720;6.576;2023-02-15T03:52:20;101037.16;;;2.29;82.93
17615;BME280;8926;49.720;6.576;2023-02-15T03:54:47;101040.59;;;2.30;83.26
17615;BME280;8926;49.720;6.576;2023-02-15T03:57:26;101035.44;;;2.27;84.06
17615;BME280;8926;49.720;6.576;2023-02-15T04:00:21;101038.88;;;2.26;84.39
17615;BME280;8926;49.720;6.576;2023-02-15T04:03:11;101038.00;;;2.27;84.37
17615;BME280;8926;49.720;6.576;2023-02-15T04:05:38;101032.00;;;2.25;84.41
17615;BME280;8926;49.720;6.576;2023-02-15T04:08:04;101033.72;;;2.20;83.24
17615;BME280;8926;49.720;6.576;2023-02-15T04:10:29;101038.03;;;2.12;82.55
17615;BME280;8926;49.720;6.576;2023-02-15T04:13:13;101032.88;;;2.09;83.90
17615;BME280;8926;49.720;6.576;2023-02-15T04:15:39;101035.44;;;2.12;83.84
17615;BME280;8926;49.720;6.576;2023-02-15T04:18:23;101038.88;;;2.11;84.80
17615;BME280;8926;49.720;6.576;2023-02-15T04:21:07;101037.16;;;2.16;84.08
17615;BME280;8926;49.720;6.576;2023-02-15T04:23:51;101032.88;;;2.22;84.60
17615;BME280;8926;49.720;6.576;2023-02-15T04:26:35;101033.72;;;2.23;82.58
17615;BME280;8926;49.720;6.576;2023-02-15T04:29:00;101037.16;;;2.10;82.99
17615;BME280;8926;49.720;6.576;2023-02-15T04:31:26;101029.47;;;2.07;84.79
17615;BME280;8926;49.720;6.576;2023-02-15T04:33:51;101028.56;;;2.14;84.81
17615;BME280;8926;49.720;6.576;2023-02-15T04:36:16;101022.56;;;2.12;85.22
17615;BME280;8926;49.720;6.576;2023-02-15T04:38:42;101032.00;;;2.13;85.38
17615;BME280;8926;49.720;6.576;2023-02-15T04:41:07;101032.00;;;2.10;84.99
17615;BME280;8926;49.720;6.576;2023-02-15T04:43:32;101032.03;;;2.07;85.33
17615;BME280;8926;49.720;6.576;2023-02-15T04:45:58;101028.59;;;2.08;85.40
17615;BME280;8926;49.720;6.576;2023-02-15T04:48:23;101037.16;;;2.10;84.58
17615;BME280;8926;49.720;6.576;2023-02-15T04:50:49;101032.91;;;2.07;84.22
17615;BME280;8926;49.720;6.576;2023-02-15T04:53:14;101032.91;;;2.07;84.59
17615;BME280;8926;49.720;6.576;2023-02-15T04:55:41;101031.19;;;2.04;84.41
17615;BME280;8926;49.720;6.576;2023-02-15T04:58:06;101042.34;;;2.07;84.48
17615;BME280;8926;49.720;6.576;2023-02-15T05:00:32;101038.03;;;2.10;84.54
17615;BME280;8926;49.720;6.576;2023-02-15T05:02:57;101038.03;;;2.09;84.14
17615;BME280;8926;49.720;6.576;2023-02-15T05:05:22;101033.75;;;2.08;84.72
17615;BME280;8926;49.720;6.576;2023-02-15T05:07:48;101037.16;;;2.13;85.01
17615;BME280;8926;49.720;6.576;2023-02-15T05:10:13;101041.47;;;2.15;84.96
17615;BME280;8926;49.720;6.576;2023-02-15T05:12:38;101032.00;;;2.19;84.78
17615;BME280;8926;49.720;6.576;2023-02-15T05:15:04;101035.44;;;2.24;85.09
17615;BME280;8926;49.720;6.576;2023-02-15T05:17:29;101042.31;;;2.25;84.90
17615;BME280;8926;49.720;6.576;2023-02-15T05:19:54;101044.03;;;2.29;84.52
17615;BME280;8926;49.720;6.576;2023-02-15T05:22:19;101047.47;;;2.28;84.49
17615;BME280;8926;49.720;6.576;2023-02-15T05:24:45;101050.91;;;2.24;84.54
17615;BME280;8926;49.720;6.576;2023-02-15T05:27:29;101049.19;;;2.23;84.20
17615;BME280;8926;49.720;6.576;2023-02-15T05:30:13;101045.75;;;2.21;82.66
17615;BME280;8926;49.720;6.576;2023-02-15T05:32:39;101047.50;;;2.07;82.84
17615;BME280;8926;49.720;6.576;2023-02-15T05:35:06;101040.63;;;2.02;84.29
17615;BME280;8926;49.720;6.576;2023-02-15T05:37:31;101035.47;;;2.01;83.93
17615;BME280;8926;49.720;6.576;2023-02-15T05:39:56;101044.94;;;1.96;83.31
17615;BME280;8926;49.720;6.576;2023-02-15T05:42:22;101051.81;;;1.92;83.11
17615;BME280;8926;49.720;6.576;2023-02-15T05:44:47;101056.09;;;1.69;83.27
17615;BME280;8926;49.720;6.576;2023-02-15T05:47:12;101050.06;;;1.59;85.72
17615;BME280;8926;49.720;6.576;2023-02-15T05:49:38;101049.22;;;1.62;85.05
17615;BME280;8926;49.720;6.576;2023-02-15T05:52:03;101058.66;;;1.61;84.66
17615;BME280;8926;49.720;6.576;2023-02-15T05:54:28;101052.66;;;1.65;85.04
17615;BME280;8926;49.720;6.576;2023-02-15T05:56:54;101047.50;;;1.64;84.61
17615;BME280;8926;49.720;6.576;2023-02-15T05:59:19;101051.81;;;1.68;86.08
17615;BME280;8926;49.720;6.576;2023-02-15T06:01:44;101056.09;;;1.72;85.96
17615;BME280;8926;49.720;6.576;2023-02-15T06:04:12;101054.38;;;1.74;86.19
17615;BME280;8926;49.720;6.576;2023-02-15T06:06:37;101059.53;;;1.77;86.50
17615;BME280;8926;49.720;6.576;2023-02-15T06:09:03;101058.69;;;1.77;87.00
17615;BME280;8926;49.720;6.576;2023-02-15T06:11:28;101057.84;;;1.79;86.26
17615;BME280;8926;49.720;6.576;2023-02-15T06:13:53;101056.13;;;1.78;85.66
17615;BME280;8926;49.720;6.576;2023-02-15T06:16:19;101054.41;;;1.80;84.34
17615;BME280;8926;49.720;6.576;2023-02-15T06:18:44;101056.09;;;1.75;84.06
17615;BME280;8926;49.720;6.576;2023-02-15T06:21:09;101068.13;;;1.72;84.56
17615;BME280;8926;49.720;6.576;2023-02-15T06:23:34;101074.13;;;1.69;84.96
17615;BME280;8926;49.720;6.576;2023-02-15T06:26:00;101083.56;;;1.70;84.64
17615;BME280;8926;49.720;6.576;2023-02-15T06:28:25;101079.28;;;1.69;84.81
17615;BME280;8926;49.720;6.576;2023-02-15T06:30:51;101085.28;;;1.71;86.35
17615;BME280;8926;49.720;6.576;2023-02-15T06:33:17;101081.88;;;1.72;86.08
17615;BME280;8926;49.720;6.576;2023-02-15T06:35:42;101074.13;;;1.70;85.72
17615;BME280;8926;49.720;6.576;2023-02-15T06:38:08;101073.28;;;1.73;86.21
17615;BME280;8926;49.720;6.576;2023-02-15T06:40:33;101070.72;;;1.78;86.31
17615;BME280;8926;49.720;6.576;2023-02-15T06:42:58;101063.84;;;1.77;85.78
17615;BME280;8926;49.720;6.576;2023-02-15T06:45:24;101068.13;;;1.79;86.14
17615;BME280;8926;49.720;6.576;2023-02-15T06:47:49;101067.25;;;1.83;85.90
17615;BME280;8926;49.720;6.576;2023-02-15T06:50:14;101063.81;;;1.84;85.65
17615;BME280;8926;49.720;6.576;2023-02-15T06:52:40;101062.97;;;1.85;85.30
17615;BME280;8926;49.720;6.576;2023-02-15T06:55:05;101061.28;;;1.81;85.18
17615;BME280;8926;49.720;6.576;2023-02-15T06:57:31;101055.22;;;1.85;85.26
17615;BME280;8926;49.720;6.576;2023-02-15T06:59:58;101047.50;;;1.85;84.97
17615;BME280;8926;49.720;6.576;2023-02-15T07:02:23;101044.09;;;1.77;84.91
17615;BME280;8926;49.720;6.576;2023-02-15T07:04:48;101049.22;;;1.71;85.10
17615;BME280;8926;49.720;6.576;2023-02-15T07:07:14;101044.09;;;1.74;86.01
17615;BME280;8926;49.720;6.576;2023-02-15T07:09:39;101038.09;;;1.80;85.65
17615;BME280;8926;49.720;6.576;2023-02-15T07:12:05;101029.50;;;1.76;85.45
17615;BME280;8926;49.720;6.576;2023-02-15T07:14:49;101037.22;;;1.73;86.28
17615;BME280;8926;49.720;6.576;2023-02-15T07:17:15;101037.22;;;1.76;85.92
17615;BME280;8926;49.720;6.576;2023-02-15T07:19:40;101037.19;;;1.82;86.25
17615;BME280;8926;49.720;6.576;2023-02-15T07:22:05;101035.47;;;1.87;86.03
17615;BME280;8926;49.720;6.576;2023-02-15T07:24:31;101026.88;;;1.91;85.54
17615;BME280;8926;49.720;6.576;2023-02-15T07:26:56;101029.47;;;1.93;85.98
17615;BME280;8926;49.720;6.576;2023-02-15T07:29:23;101028.59;;;1.89;86.16
17615;BME280;8926;49.720;6.576;2023-02-15T07:31:48;101029.47;;;1.94;85.48
17615;BME280;8926;49.720;6.576;2023-02-15T07:34:13;101021.75;;;1.94;85.65
17615;BME280;8926;49.720;6.576;2023-02-15T07:36:38;101026.03;;;1.98;85.47
17615;BME280;8926;49.720;6.576;2023-02-15T07:39:04;101026.03;;;1.98;85.49
17615;BME280;8926;49.720;6.576;2023-02-15T07:41:29;101020.88;;;1.95;85.00
17615;BME280;8926;49.720;6.576;2023-02-15T07:43:54;101018.31;;;1.86;85.51
17615;BME280;8926;49.720;6.576;2023-02-15T07:46:20;101013.16;;;1.86;86.01
17615;BME280;8926;49.720;6.576;2023-02-15T07:48:46;101009.75;;;1.81;85.67
17615;BME280;8926;49.720;6.576;2023-02-15T07:51:12;101021.72;;;1.82;85.87
17615;BME280;8926;49.720;6.576;2023-02-15T07:53:38;101012.31;;;1.81;85.29
17615;BME280;8926;49.720;6.576;2023-02-15T07:56:06;101014.03;;;1.81;84.32
17615;BME280;8926;49.720;6.576;2023-02-15T07:58:33;101014.91;;;1.78;84.98
17615;BME280;8926;49.720;6.576;2023-02-15T08:01:31;101016.63;;;1.76;84.18
17615;BME280;8926;49.720;6.576;2023-02-15T08:03:57;101015.75;;;1.73;83.79
17615;BME280;8926;49.720;6.576;2023-02-15T08:06:27;101018.31;;;1.62;83.44
17615;BME280;8926;49.720;6.576;2023-02-15T08:08:53;101016.59;;;1.61;83.58
17615;BME280;8926;49.720;6.576;2023-02-15T08:11:23;101014.03;;;1.61;85.04
17615;BME280;8926;49.720;6.576;2023-02-15T08:18:57;101023.47;;;1.80;85.12
17615;BME280;8926;49.720;6.576;2023-02-15T08:21:25;101013.16;;;1.83;85.41
17615;BME280;8926;49.720;6.576;2023-02-15T08:23:51;101015.72;;;1.89;84.97
17615;BME280;8926;49.720;6.576;2023-02-15T08:26:16;101018.31;;;1.92;84.40
17615;BME280;8926;49.720;6.576;2023-02-15T08:28:42;101008.84;;;1.88;85.21
17615;BME280;8926;49.720;6.576;2023-02-15T08:31:09;101008.84;;;1.88;85.28
17615;BME280;8926;49.720;6.576;2023-02-15T08:33:36;101014.00;;;1.94;85.92
17615;BME280;8926;49.720;6.576;2023-02-15T08:36:04;101021.75;;;2.00;85.67
17615;BME280;8926;49.720;6.576;2023-02-15T08:38:29;101026.03;;;2.04;85.29
17615;BME280;8926;49.720;6.576;2023-02-15T08:40:54;101022.56;;;2.09;85.77
17615;BME280;8926;49.720;6.576;2023-02-15T08:43:20;101016.53;;;2.10;84.46
17615;BME280;8926;49.720;6.576;2023-02-15T08:45:45;101024.31;;;2.05;83.88
17615;BME280;8926;49.720;6.576;2023-02-15T08:48:11;101025.19;;;2.06;83.98
17615;BME280;8926;49.720;6.576;2023-02-15T08:50:36;101026.00;;;2.11;82.67
17615;BME280;8926;49.720;6.576;2023-02-15T08:53:01;101023.47;;;2.08;82.55
17615;BME280;8926;49.720;6.576;2023-02-15T08:55:27;101028.59;;;2.01;82.66
17615;BME280;8926;49.720;6.576;2023-02-15T08:57:52;101023.47;;;1.98;82.35
17615;BME280;8926;49.720;6.576;2023-02-15T09:00:21;101024.31;;;1.96;82.94
17615;BME280;8926;49.720;6.576;2023-02-15T09:02:47;101025.16;;;1.87;82.78
17615;BME280;8926;49.720;6.576;2023-02-15T09:05:13;101021.75;;;1.88;84.51
17615;BME280;8926;49.720;6.576;2023-02-15T09:07:38;101020.03;;;1.96;83.32
17615;BME280;8926;49.720;6.576;2023-02-15T09:10:04;101026.88;;;2.03;83.64
17615;BME280;8926;49.720;6.576;2023-02-15T09:12:30;101020.84;;;2.11;83.40
17615;BME280;8926;49.720;6.576;2023-02-15T09:14:55;101023.47;;;2.08;83.69
17615;BME280;8926;49.720;6.576;2023-02-15T09:17:21;101023.41;;;2.17;84.27
17615;BME280;8926;49.720;6.576;2023-02-15T09:19:46;101015.69;;;2.26;84.22
17615;BME280;8926;49.720;6.576;2023-02-15T09:22:11;101012.22;;;2.33;83.65
17615;BME280;8926;49.720;6.576;2023-02-15T09:24:36;101011.31;;;2.49;83.22
17615;BME280;8926;49.720;6.576;2023-02-15T09:27:02;101004.44;;;2.48;82.79
17615;BME280;8926;49.720;6.576;2023-02-15T09:29:27;101000.97;;;2.57;82.36
17615;BME280;8926;49.720;6.576;2023-02-15T09:31:53;101002.69;;;2.56;81.92
17615;BME280;8926;49.720;6.576;2023-02-15T09:34:20;101002.72;;;2.44;82.97
17615;BME280;8926;49.720;6.576;2023-02-15T09:36:46;101017.31;;;2.47;83.41
17615;BME280;8926;49.720;6.576;2023-02-15T09:56:06;101025.44;;;3.41;80.62
17615;BME280;8926;49.720;6.576;2023-02-15T10:03:50;101013.63;;;4.16;80.57
17615;BME280;8926;49.720;6.576;2023-02-15T10:06:32;101014.88;;;4.56;77.50
17615;BME280;8926;49.720;6.576;2023-02-15T10:09:14;101016.03;;;5.00;76.64
17615;BME280;8926;49.720;6.576;2023-02-15T10:11:58;100999.34;;;5.73;74.96
17615;BME280;8926;49.720;6.576;2023-02-15T10:27:46;100971.53;;;8.77;63.34
17615;BME280;8926;49.720;6.576;2023-02-15T10:30:25;100966.72;;;9.21;61.95
17615;BME280;8926;49.720;6.576;2023-02-15T10:33:16;100962.41;;;9.46;61.51
17615;BME280;8926;49.720;6.576;2023-02-15T10:41:41;100947.72;;;10.20;57.39
17615;BME280;8926;49.720;6.576;2023-02-15T10:44:36;100950.66;;;10.36;57.31
17615;BME280;8926;49.720;6.576;2023-02-15T10:49:55;100934.88;;;10.39;55.98
17615;BME280;8926;49.720;6.576;2023-02-15T11:06:17;100923.03;;;10.75;55.33
17615;BME280;8926;49.720;6.576;2023-02-15T11:08:47;100909.28;;;10.70;55.95
17615;BME280;8926;49.720;6.576;2023-02-15T11:11:35;100913.41;;;10.98;54.95
17615;BME280;8926;49.720;6.576;2023-02-15T11:14:12;100910.63;;;11.02;55.78
17615;BME280;8926;49.720;6.576;2023-02-15T11:16:44;100909.31;;;11.14;56.35
17615;BME280;8926;49.720;6.576;2023-02-15T11:19:19;100906.09;;;11.28;55.42
17615;BME280;8926;49.720;6.576;2023-02-15T11:21:49;100902.66;;;11.47;55.11
17615;BME280;8926;49.720;6.576;2023-02-15T11:24:19;100902.53;;;11.50;54.28
17615;BME280;8926;49.720;6.576;2023-02-15T11:27:02;100898.22;;;11.49;54.44
17615;BME280;8926;49.720;6.576;2023-02-15T11:29:48;100897.84;;;11.79;54.37
17615;BME280;8926;49.720;6.576;2023-02-15T11:32:23;100892.59;;;11.99;56.39
17615;BME280;8926;49.720;6.576;2023-02-15T11:35:06;100884.66;;;12.21;55.14
17615;BME280;8926;49.720;6.576;2023-02-15T11:37:53;100876.16;;;12.35;54.19
17615;BME280;8926;49.720;6.576;2023-02-15T11:40:32;100876.44;;;12.29;54.41
17615;BME280;8926;49.720;6.576;2023-02-15T11:43:10;100876.09;;;12.17;54.78
17615;BME280;8926;49.720;6.576;2023-02-15T11:45:45;100870.41;;;12.27;56.40
17615;BME280;8926;49.720;6.576;2023-02-15T11:48:14;100859.66;;;12.33;54.87
17615;BME280;8926;49.720;6.576;2023-02-15T11:50:41;100865.81;;;12.32;55.14
17615;BME280;8926;49.720;6.576;2023-02-15T11:53:12;100861.28;;;12.16;55.60
17615;BME280;8926;49.720;6.576;2023-02-15T11:55:39;100862.69;;;12.23;56.85
17615;BME280;8926;49.720;6.576;2023-02-15T11:58:24;100866.66;;;12.13;56.60
17615;BME280;8926;49.720;6.576;2023-02-15T12:00:58;100859.97;;;12.06;55.82
17615;BME280;8926;49.720;6.576;2023-02-15T12:03:48;100848.66;;;12.24;55.58
17615;BME280;8926;49.720;6.576;2023-02-15T12:06:24;100846.00;;;12.45;55.83
17615;BME280;8926;49.720;6.576;2023-02-15T12:08:59;100835.72;;;12.76;55.37
17615;BME280;8926;49.720;6.576;2023-02-15T12:11:35;100829.59;;;12.95;54.48
17615;BME280;8926;49.720;6.576;2023-02-15T12:14:07;100829.03;;;12.88;53.52
17615;BME280;8926;49.720;6.576;2023-02-15T12:16:53;100824.44;;;12.93;54.81
17615;BME280;8926;49.720;6.576;2023-02-15T12:19:38;100822.09;;;12.87;53.59
17615;BME280;8926;49.720;6.576;2023-02-15T12:22:06;100826.34;;;12.89;53.91
17615;BME280;8926;49.720;6.576;2023-02-15T12:24:47;100828.63;;;12.78;54.56
17615;BME280;8926;49.720;6.576;2023-02-15T12:27:16;100822.84;;;12.72;54.61
17615;BME280;8926;49.720;6.576;2023-02-15T12:29:53;100820.75;;;12.61;55.62
17615;BME280;8926;49.720;6.576;2023-02-15T12:32:26;100825.63;;;12.50;55.02
17615;BME280;8926;49.720;6.576;2023-02-15T12:35:00;100817.50;;;12.37;54.94
17615;BME280;8926;49.720;6.576;2023-02-15T12:37:29;100823.44;;;12.22;55.00
17615;BME280;8926;49.720;6.576;2023-02-15T12:40:00;100813.69;;;12.07;54.42
17615;BME280;8926;49.720;6.576;2023-02-15T12:42:41;100813.25;;;11.97;54.35
17615;BME280;8926;49.720;6.576;2023-02-15T12:48:15;100807.88;;;12.00;55.04
17615;BME280;8926;49.720;6.576;2023-02-15T12:50:48;100797.00;;;12.09;56.37
17615;BME280;8926;49.720;6.576;2023-02-15T12:53:21;100801.94;;;12.15;54.41
17615;BME280;8926;49.720;6.576;2023-02-15T12:55:55;100804.75;;;12.30;54.60
17615;BME280;8926;49.720;6.576;2023-02-15T12:58:26;100790.47;;;12.37;54.39
17615;BME280;8926;49.720;6.576;2023-02-15T13:01:17;100791.03;;;12.43;54.46
17615;BME280;8926;49.720;6.576;2023-02-15T13:03:58;100786.63;;;12.44;53.63
17615;BME280;8926;49.720;6.576;2023-02-15T13:06:26;100777.69;;;12.48;54.64
17615;BME280;8926;49.720;6.576;2023-02-15T13:08:53;100774.13;;;12.49;55.61
17615;BME280;8926;49.720;6.576;2023-02-15T13:11:29;100767.50;;;12.42;54.32
17615;BME280;8926;49.720;6.576;2023-02-15T13:14:03;100766.59;;;12.43;55.13
17615;BME280;8926;49.720;6.576;2023-02-15T13:16:42;100755.47;;;12.38;54.17
17615;BME280;8926;49.720;6.576;2023-02-15T13:19:17;100761.19;;;12.46;55.41
17615;BME280;8926;49.720;6.576;2023-02-15T13:21:48;100746.22;;;12.48;55.36
17615;BME280;8926;49.720;6.576;2023-02-15T13:25:03;100760.44;;;12.44;54.69
17615;BME280;8926;49.720;6.576;2023-02-15T13:27:13;100760.44;;;12.44;54.95
17615;BME280;8926;49.720;6.576;2023-02-15T13:29:44;100765.19;;;12.36;54.58
17615;BME280;8926;49.720;6.576;2023-02-15T13:32:28;100762.69;;;12.33;54.78
17615;BME280;8926;49.720;6.576;2023-02-15T13:34:57;100759.72;;;12.21;55.83
17615;BME280;8926;49.720;6.576;2023-02-15T13:38:01;100753.25;;;12.11;54.94
17615;BME280;8926;49.720;6.576;2023-02-15T13:48:59;100740.22;;;11.91;56.56
17615;BME280;8926;49.720;6.576;2023-02-15T13:52:07;100742.34;;;11.83;57.22
17615;BME280;8926;49.720;6.576;2023-02-15T14:00:24;100735.38;;;11.63;58.91
17615;BME280;8926;49.720;6.576;2023-02-15T14:03:05;100731.25;;;11.57;59.35
17615;BME280;8926;49.720;6.576;2023-02-15T14:06:26;100731.38;;;11.54;59.16
17615;BME280;8926;49.720;6.576;2023-02-15T14:08:48;100720.91;;;11.54;59.29
17615;BME280;8926;49.720;6.576;2023-02-15T14:13:58;100728.69;;;11.37;60.05
17615;BME280;8926;49.720;6.576;2023-02-15T14:19:42;100727.00;;;11.36;60.07
17615;BME280;8926;49.720;6.576;2023-02-15T14:30:19;100731.69;;;11.28;60.35
17615;BME280;8926;49.720;6.576;2023-02-15T14:32:48;100726.47;;;11.28;60.52
17615;BME280;8926;49.720;6.576;2023-02-15T14:35:17;100729.09;;;11.28;60.75
17615;BME280;8926;49.720;6.576;2023-02-15T14:49:22;100729.28;;;11.23;60.88
17615;BME280;8926;49.720;6.576;2023-02-15T14:56:43;100719.72;;;11.22;61.26
17615;BME280;8926;49.720;6.576;2023-02-15T14:59:21;100717.19;;;11.21;61.19
17615;BME280;8926;49.720;6.576;2023-02-15T15:02:13;100721.56;;;11.20;60.96
17615;BME280;8926;49.720;6.576;2023-02-15T15:05:06;100720.88;;;11.17;61.09
17615;BME280;8926;49.720;6.576;2023-02-15T15:07:45;100717.47;;;11.15;61.40
17615;BME280;8926;49.720;6.576;2023-02-15T15:12:46;100719.69;;;11.04;61.76
17615;BME280;8926;49.720;6.576;2023-02-15T15:15:15;100732.09;;;10.99;61.79
17615;BME280;8926;49.720;6.576;2023-02-15T15:18:06;100728.03;;;10.92;62.18
17615;BME280;8926;49.720;6.576;2023-02-15T15:25:45;100719.69;;;10.83;62.10
17615;BME280;8926;49.720;6.576;2023-02-15T15:31:03;100722.81;;;10.71;61.87
17615;BME280;8926;49.720;6.576;2023-02-15T15:36:22;100720.72;;;10.59;62.30
17615;BME280;8926;49.720;6.576;2023-02-15T15:39:56;100720.06;;;10.54;62.68
17615;BME280;8926;49.720;6.576;2023-02-15T15:42:02;100710.75;;;10.47;62.60
17615;BME280;8926;49.720;6.576;2023-02-15T15:47:58;100721.53;;;10.39;62.81
17615;BME280;8926;49.720;6.576;2023-02-15T15:50:27;100717.47;;;10.32;62.56
17615;BME280;8926;49.720;6.576;2023-02-15T15:52:55;100714.22;;;10.26;62.59
17615;BME280;8926;49.720;6.576;2023-02-15T15:55:25;100714.41;;;10.21;62.86
17615;BME280;8926;49.720;6.576;2023-02-15T15:57:57;100714.47;;;10.19;62.91
17615;BME280;8926;49.720;6.576;2023-02-15T16:00:42;100713.84;;;10.13;63.04
17615;BME280;8926;49.720;6.576;2023-02-15T16:03:16;100707.16;;;10.06;63.48